sensor_id;sensor_type;location;lat;lon;timestamp;P1;durP1;ratioP1;P2;durP2;ratioP2
4365;SDS011;2196;47.422;9.656;2024-03-08T00:01:39;8.73;;;5.40;;
4365;SDS011;2196;47.422;9.656;2024-03-08T00:04:06;6.30;;;4.90;;
4365;SDS011;2196;47.422;9.656;2024-03-08T00:06:33;7.33;;;5.90;;
4365;SDS011;2196;47.422;9.656;2024-03-08T00:09:00;10.23;;;6.13;;
4365;SDS011;2196;47.422;9.656;2024-03-08T00:11:27;4.53;;;4.13;;
4365;SDS011;2196;47.422;9.656;2024-03-08T00:13:56;8.47;;;5.43;;
4365;SDS011;2196;47.422;9.656;2024-03-08T00:16:24;10.50;;;6.90;;
4365;SDS011;2196;47.422;9.656;2024-03-08T00:18:52;9.63;;;6.03;;
4365;SDS011;2196;47.422;9.656;2024-03-08T00:21:19;7.33;;;4.87;;
4365;SDS011;2196;47.422;9.656;2024-03-08T00:23:46;9.13;;;5.70;;
4365;SDS011;2196;47.422;9.656;2024-03-08T00:26:13;7.93;;;5.77;;
4365;SDS011;2196;47.422;9.656;2024-03-08T00:28:40;6.93;;;5.03;;
4365;SDS011;2196;47.422;9.656;2024-03-08T00:31:08;6.13;;;5.33;;
4365;SDS011;2196;47.422;9.656;2024-03-08T00:33:37;7.23;;;5.37;;
4365;SDS011;2196;47.422;9.656;2024-03-08T00:36:04;6.23;;;4.80;;
4365;SDS011;2196;47.422;9.656;2024-03-08T00:38:32;7.17;;;5.57;;
4365;SDS011;2196;47.422;9.656;2024-03-08T00:40:59;9.77;;;6.43;;
4365;SDS011;2196;47.422;9.656;2024-03-08T00:43:27;8.90;;;6.57;;
4365;SDS011;2196;47.422;9.656;2024-03-08T00:45:55;8.33;;;5.50;;
4365;SDS011;2196;47.422;9.656;2024-03-08T00:48:22;11.57;;;6.17;;
4365;SDS011;2196;47.422;9.656;2024-03-08T00:50:51;9.23;;;5.40;;
4365;SDS011;2196;47.422;9.656;2024-03-08T00:53:18;9.83;;;6.13;;
4365;SDS011;2196;47.422;9.656;2024-03-08T00:55:45;6.13;;;5.40;;
4365;SDS011;2196;47.422;9.656;2024-03-08T00:58:12;9.43;;;6.40;;
4365;SDS011;2196;47.422;9.656;2024-03-08T01:00:39;7.23;;;5.10;;
4365;SDS011;2196;47.422;9.656;2024-03-08T01:03:06;8.63;;;5.67;;
4365;SDS011;2196;47.422;9.656;2024-03-08T01:05:33;7.77;;;4.93;;
4365;SDS011;2196;47.422;9.656;2024-03-08T01:08:02;12.50;;;6.60;;
4365;SDS011;2196;47.422;9.656;2024-03-08T01:10:30;7.63;;;5.13;;
4365;SDS011;2196;47.422;9.656;2024-03-08T01:12:57;8.33;;;5.30;;
4365;SDS011;2196;47.422;9.656;2024-03-08T01:15:24;8.60;;;5.17;;
4365;SDS011;2196;47.422;9.656;2024-03-08T01:17:51;9.57;;;6.37;;
4365;SDS011;2196;47.422;9.656;2024-03-08T01:20:19;9.23;;;6.03;;
4365;SDS011;2196;47.422;9.656;2024-03-08T01:22:46;9.60;;;6.07;;
4365;SDS011;2196;47.422;9.656;2024-03-08T01:25:14;8.83;;;7.00;;
4365;SDS011;2196;47.422;9.656;2024-03-08T01:27:44;8.50;;;5.30;;
4365;SDS011;2196;47.422;9.656;2024-03-08T01:30:10;8.07;;;5.57;;
4365;SDS011;2196;47.422;9.656;2024-03-08T01:32:38;10.20;;;7.37;;
4365;SDS011;2196;47.422;9.656;2024-03-08T01:35:05;9.77;;;5.53;;
4365;SDS011;2196;47.422;9.656;2024-03-08T01:37:34;6.43;;;5.17;;
4365;SDS011;2196;47.422;9.656;2024-03-08T01:40:01;8.17;;;5.80;;
4365;SDS011;2196;47.422;9.656;2024-03-08T01:42:30;12.53;;;5.80;;
4365;SDS011;2196;47.422;9.656;2024-03-08T01:44:57;8.07;;;5.60;;
4365;SDS011;2196;47.422;9.656;2024-03-08T01:47:24;10.13;;;5.70;;
4365;SDS011;2196;47.422;9.656;2024-03-08T01:49:52;9.30;;;5.70;;
4365;SDS011;2196;47.422;9.656;2024-03-08T01:52:19;12.30;;;6.73;;
4365;SDS011;2196;47.422;9.656;2024-03-08T01:54:48;9.43;;;6.60;;
4365;SDS011;2196;47.422;9.656;2024-03-08T01:57:16;9.13;;;6.63;;
4365;SDS011;2196;47.422;9.656;2024-03-08T01:59:44;11.23;;;6.13;;
4365;SDS011;2196;47.422;9.656;2024-03-08T02:02:11;10.47;;;6.97;;
4365;SDS011;2196;47.422;9.656;2024-03-08T02:04:45;11.43;;;6.50;;
4365;SDS011;2196;47.422;9.656;2024-03-08T02:07:12;9.43;;;6.33;;
4365;SDS011;2196;47.422;9.656;2024-03-08T02:09:39;14.10;;;8.73;;
4365;SDS011;2196;47.422;9.656;2024-03-08T02:12:07;14.23;;;8.50;;
4365;SDS011;2196;47.422;9.656;2024-03-08T02:14:34;16.53;;;8.97;;
4365;SDS011;2196;47.422;9.656;2024-03-08T02:17:03;11.40;;;8.23;;
4365;SDS011;2196;47.422;9.656;2024-03-08T02:19:30;12.93;;;8.90;;
4365;SDS011;2196;47.422;9.656;2024-03-08T02:21:59;11.90;;;7.97;;
4365;SDS011;2196;47.422;9.656;2024-03-08T02:24:29;16.13;;;9.70;;
4365;SDS011;2196;47.422;9.656;2024-03-08T02:26:56;13.40;;;9.83;;
4365;SDS011;2196;47.422;9.656;2024-03-08T02:29:23;13.70;;;8.13;;
4365;SDS011;2196;47.422;9.656;2024-03-08T02:31:50;16.40;;;9.97;;
4365;SDS011;2196;47.422;9.656;2024-03-08T02:34:18;13.47;;;9.10;;
4365;SDS011;2196;47.422;9.656;2024-03-08T02:36:45;13.57;;;9.17;;
4365;SDS011;2196;47.422;9.656;2024-03-08T02:39:13;16.07;;;10.07;;
4365;SDS011;2196;47.422;9.656;2024-03-08T02:41:40;14.33;;;9.00;;
4365;SDS011;2196;47.422;9.656;2024-03-08T02:44:08;14.47;;;9.10;;
4365;SDS011;2196;47.422;9.656;2024-03-08T02:46:35;14.20;;;10.07;;
4365;SDS011;2196;47.422;9.656;2024-03-08T02:49:02;17.67;;;9.90;;
4365;SDS011;2196;47.422;9.656;2024-03-08T02:51:29;14.80;;;9.03;;
4365;SDS011;2196;47.422;9.656;2024-03-08T02:53:57;16.03;;;10.43;;
4365;SDS011;2196;47.422;9.656;2024-03-08T02:56:25;16.97;;;9.80;;
4365;SDS011;2196;47.422;9.656;2024-03-08T02:58:52;17.00;;;9.07;;
4365;SDS011;2196;47.422;9.656;2024-03-08T03:01:19;16.37;;;10.43;;
4365;SDS011;2196;47.422;9.656;2024-03-08T03:03:47;14.13;;;9.70;;
4365;SDS011;2196;47.422;9.656;2024-03-08T03:06:14;15.53;;;8.93;;
4365;SDS011;2196;47.422;9.656;2024-03-08T03:08:41;15.53;;;9.73;;
4365;SDS011;2196;47.422;9.656;2024-03-08T03:11:10;14.23;;;8.67;;
4365;SDS011;2196;47.422;9.656;2024-03-08T03:13:39;13.40;;;9.03;;
4365;SDS011;2196;47.422;9.656;2024-03-08T03:16:07;14.77;;;9.63;;
4365;SDS011;2196;47.422;9.656;2024-03-08T03:18:35;14.30;;;8.83;;
4365;SDS011;2196;47.422;9.656;2024-03-08T03:21:02;15.63;;;10.13;;
4365;SDS011;2196;47.422;9.656;2024-03-08T03:23:32;17.43;;;9.80;;
4365;SDS011;2196;47.422;9.656;2024-03-08T03:26:00;15.83;;;9.10;;
4365;SDS011;2196;47.422;9.656;2024-03-08T03:28:27;18.07;;;10.10;;
4365;SDS011;2196;47.422;9.656;2024-03-08T03:30:56;16.70;;;10.37;;
4365;SDS011;2196;47.422;9.656;2024-03-08T03:33:23;16.57;;;9.60;;
4365;SDS011;2196;47.422;9.656;2024-03-08T03:35:50;18.23;;;11.30;;
4365;SDS011;2196;47.422;9.656;2024-03-08T03:38:18;14.20;;;9.77;;
4365;SDS011;2196;47.422;9.656;2024-03-08T03:40:48;16.70;;;9.83;;
4365;SDS011;2196;47.422;9.656;2024-03-08T03:43:17;18.17;;;10.60;;
4365;SDS011;2196;47.422;9.656;2024-03-08T03:45:44;17.43;;;10.00;;
4365;SDS011;2196;47.422;9.656;2024-03-08T03:48:12;19.27;;;10.77;;
4365;SDS011;2196;47.422;9.656;2024-03-08T03:50:39;17.80;;;11.53;;
4365;SDS011;2196;47.422;9.656;2024-03-08T03:53:07;21.87;;;13.27;;
4365;SDS011;2196;47.422;9.656;2024-03-08T03:55:34;22.70;;;11.90;;
4365;SDS011;2196;47.422;9.656;2024-03-08T03:58:02;22.97;;;12.70;;
4365;SDS011;2196;47.422;9.656;2024-03-08T04:00:29;15.17;;;10.37;;
4365;SDS011;2196;47.422;9.656;2024-03-08T04:02:56;22.37;;;11.90;;
4365;SDS011;2196;47.422;9.656;2024-03-08T04:05:27;23.30;;;12.83;;
4365;SDS011;2196;47.422;9.656;2024-03-08T04:07:54;18.43;;;11.27;;
4365;SDS011;2196;47.422;9.656;2024-03-08T04:10:21;20.37;;;12.17;;
4365;SDS011;2196;47.422;9.656;2024-03-08T04:12:48;21.77;;;12.00;;
4365;SDS011;2196;47.422;9.656;2024-03-08T04:15:15;21.37;;;11.13;;
4365;SDS011;2196;47.422;9.656;2024-03-08T04:17:45;21.10;;;11.50;;
4365;SDS011;2196;47.422;9.656;2024-03-08T04:20:12;22.77;;;11.67;;
4365;SDS011;2196;47.422;9.656;2024-03-08T04:22:40;23.03;;;12.63;;
4365;SDS011;2196;47.422;9.656;2024-03-08T04:25:08;23.40;;;13.07;;
4365;SDS011;2196;47.422;9.656;2024-03-08T04:27:35;19.83;;;11.00;;
4365;SDS011;2196;47.422;9.656;2024-03-08T04:30:03;23.77;;;14.13;;
4365;SDS011;2196;47.422;9.656;2024-03-08T04:32:32;23.83;;;14.03;;
4365;SDS011;2196;47.422;9.656;2024-03-08T04:34:59;22.40;;;12.23;;
4365;SDS011;2196;47.422;9.656;2024-03-08T04:37:28;23.77;;;14.23;;
4365;SDS011;2196;47.422;9.656;2024-03-08T04:39:57;22.07;;;12.60;;
4365;SDS011;2196;47.422;9.656;2024-03-08T04:42:24;20.87;;;12.47;;
4365;SDS011;2196;47.422;9.656;2024-03-08T04:44:52;22.40;;;13.13;;
4365;SDS011;2196;47.422;9.656;2024-03-08T04:47:19;24.10;;;13.67;;
4365;SDS011;2196;47.422;9.656;2024-03-08T04:49:46;22.63;;;12.97;;
4365;SDS011;2196;47.422;9.656;2024-03-08T04:52:13;25.27;;;13.70;;
4365;SDS011;2196;47.422;9.656;2024-03-08T04:54:40;25.23;;;13.70;;
4365;SDS011;2196;47.422;9.656;2024-03-08T04:57:09;23.37;;;13.53;;
4365;SDS011;2196;47.422;9.656;2024-03-08T04:59:36;19.70;;;11.33;;
4365;SDS011;2196;47.422;9.656;2024-03-08T05:02:03;22.73;;;13.00;;
4365;SDS011;2196;47.422;9.656;2024-03-08T05:04:30;29.63;;;15.20;;
4365;SDS011;2196;47.422;9.656;2024-03-08T05:06:57;29.03;;;15.33;;
4365;SDS011;2196;47.422;9.656;2024-03-08T05:09:26;25.90;;;14.43;;
4365;SDS011;2196;47.422;9.656;2024-03-08T05:11:54;33.47;;;15.83;;
4365;SDS011;2196;47.422;9.656;2024-03-08T05:14:23;29.00;;;17.07;;
4365;SDS011;2196;47.422;9.656;2024-03-08T05:16:50;30.13;;;15.40;;
4365;SDS011;2196;47.422;9.656;2024-03-08T05:19:17;28.80;;;14.37;;
4365;SDS011;2196;47.422;9.656;2024-03-08T05:21:46;30.53;;;16.80;;
4365;SDS011;2196;47.422;9.656;2024-03-08T05:24:14;25.97;;;15.60;;
4365;SDS011;2196;47.422;9.656;2024-03-08T05:26:41;30.27;;;16.60;;
4365;SDS011;2196;47.422;9.656;2024-03-08T05:29:08;27.43;;;16.00;;
4365;SDS011;2196;47.422;9.656;2024-03-08T05:31:38;30.07;;;16.10;;
4365;SDS011;2196;47.422;9.656;2024-03-08T05:34:12;27.90;;;15.90;;
4365;SDS011;2196;47.422;9.656;2024-03-08T05:36:40;30.27;;;16.83;;
4365;SDS011;2196;47.422;9.656;2024-03-08T05:39:09;30.07;;;15.40;;
4365;SDS011;2196;47.422;9.656;2024-03-08T05:41:37;30.93;;;15.73;;
4365;SDS011;2196;47.422;9.656;2024-03-08T05:44:04;30.93;;;16.07;;
4365;SDS011;2196;47.422;9.656;2024-03-08T05:46:31;24.63;;;15.13;;
4365;SDS011;2196;47.422;9.656;2024-03-08T05:48:59;33.17;;;16.83;;
4365;SDS011;2196;47.422;9.656;2024-03-08T05:51:30;28.37;;;14.83;;
4365;SDS011;2196;47.422;9.656;2024-03-08T05:53:59;24.87;;;14.97;;
4365;SDS011;2196;47.422;9.656;2024-03-08T05:56:27;23.73;;;13.03;;
4365;SDS011;2196;47.422;9.656;2024-03-08T05:58:55;27.13;;;14.13;;
4365;SDS011;2196;47.422;9.656;2024-03-08T06:01:23;21.60;;;14.00;;
4365;SDS011;2196;47.422;9.656;2024-03-08T06:03:50;26.80;;;14.40;;
4365;SDS011;2196;47.422;9.656;2024-03-08T06:06:20;25.00;;;13.77;;
4365;SDS011;2196;47.422;9.656;2024-03-08T06:08:48;23.37;;;14.33;;
4365;SDS011;2196;47.422;9.656;2024-03-08T06:11:15;24.03;;;13.23;;
4365;SDS011;2196;47.422;9.656;2024-03-08T06:13:43;24.43;;;13.60;;
4365;SDS011;2196;47.422;9.656;2024-03-08T06:16:10;18.80;;;11.60;;
4365;SDS011;2196;47.422;9.656;2024-03-08T06:18:37;14.87;;;9.20;;
4365;SDS011;2196;47.422;9.656;2024-03-08T06:21:04;14.73;;;9.50;;
4365;SDS011;2196;47.422;9.656;2024-03-08T06:23:33;15.20;;;9.90;;
4365;SDS011;2196;47.422;9.656;2024-03-08T06:26:03;16.17;;;9.70;;
4365;SDS011;2196;47.422;9.656;2024-03-08T06:28:30;13.80;;;8.07;;
4365;SDS011;2196;47.422;9.656;2024-03-08T06:30:58;15.80;;;9.40;;
4365;SDS011;2196;47.422;9.656;2024-03-08T06:33:25;15.53;;;10.23;;
4365;SDS011;2196;47.422;9.656;2024-03-08T06:35:52;13.00;;;8.80;;
4365;SDS011;2196;47.422;9.656;2024-03-08T06:38:22;16.27;;;9.77;;
4365;SDS011;2196;47.422;9.656;2024-03-08T06:40:50;14.63;;;9.80;;
4365;SDS011;2196;47.422;9.656;2024-03-08T06:43:18;14.40;;;9.73;;
4365;SDS011;2196;47.422;9.656;2024-03-08T06:45:45;16.50;;;9.93;;
4365;SDS011;2196;47.422;9.656;2024-03-08T06:48:14;18.23;;;9.90;;
4365;SDS011;2196;47.422;9.656;2024-03-08T06:50:42;19.63;;;10.87;;
4365;SDS011;2196;47.422;9.656;2024-03-08T06:53:09;16.20;;;10.10;;
4365;SDS011;2196;47.422;9.656;2024-03-08T06:55:36;16.37;;;10.43;;
4365;SDS011;2196;47.422;9.656;2024-03-08T06:58:05;17.27;;;11.03;;
4365;SDS011;2196;47.422;9.656;2024-03-08T07:00:32;20.60;;;10.13;;
4365;SDS011;2196;47.422;9.656;2024-03-08T07:02:59;13.80;;;8.70;;
4365;SDS011;2196;47.422;9.656;2024-03-08T07:05:26;13.33;;;8.20;;
4365;SDS011;2196;47.422;9.656;2024-03-08T07:07:53;13.00;;;8.90;;
4365;SDS011;2196;47.422;9.656;2024-03-08T07:10:20;10.40;;;6.60;;
4365;SDS011;2196;47.422;9.656;2024-03-08T07:12:49;7.90;;;6.47;;
4365;SDS011;2196;47.422;9.656;2024-03-08T07:15:18;8.33;;;6.33;;
4365;SDS011;2196;47.422;9.656;2024-03-08T07:17:46;6.83;;;5.13;;
4365;SDS011;2196;47.422;9.656;2024-03-08T07:20:13;6.83;;;6.13;;
4365;SDS011;2196;47.422;9.656;2024-03-08T07:22:44;11.60;;;7.23;;
4365;SDS011;2196;47.422;9.656;2024-03-08T07:25:12;8.57;;;6.33;;
4365;SDS011;2196;47.422;9.656;2024-03-08T07:27:49;10.77;;;5.83;;
4365;SDS011;2196;47.422;9.656;2024-03-08T07:30:19;6.73;;;6.03;;
4365;SDS011;2196;47.422;9.656;2024-03-08T07:33:04;8.77;;;6.20;;
4365;SDS011;2196;47.422;9.656;2024-03-08T07:35:32;10.27;;;7.17;;
4365;SDS011;2196;47.422;9.656;2024-03-08T07:38:02;10.70;;;7.40;;
4365;SDS011;2196;47.422;9.656;2024-03-08T07:40:30;10.17;;;7.67;;
4365;SDS011;2196;47.422;9.656;2024-03-08T07:42:57;14.03;;;8.93;;
4365;SDS011;2196;47.422;9.656;2024-03-08T07:45:26;17.93;;;10.47;;
4365;SDS011;2196;47.422;9.656;2024-03-08T07:47:53;16.07;;;9.73;;
4365;SDS011;2196;47.422;9.656;2024-03-08T07:50:21;14.30;;;10.47;;
4365;SDS011;2196;47.422;9.656;2024-03-08T07:52:48;14.60;;;9.13;;
4365;SDS011;2196;47.422;9.656;2024-03-08T07:55:16;13.60;;;9.60;;
4365;SDS011;2196;47.422;9.656;2024-03-08T07:57:44;15.40;;;10.13;;
4365;SDS011;2196;47.422;9.656;2024-03-08T08:00:13;14.53;;;10.17;;
4365;SDS011;2196;47.422;9.656;2024-03-08T08:02:44;12.97;;;9.63;;
4365;SDS011;2196;47.422;9.656;2024-03-08T08:05:11;9.10;;;7.53;;
4365;SDS011;2196;47.422;9.656;2024-03-08T08:07:40;10.80;;;8.00;;
4365;SDS011;2196;47.422;9.656;2024-03-08T08:10:11;12.23;;;8.70;;
4365;SDS011;2196;47.422;9.656;2024-03-08T08:12:43;12.77;;;8.30;;
4365;SDS011;2196;47.422;9.656;2024-03-08T08:15:11;13.70;;;8.53;;
4365;SDS011;2196;47.422;9.656;2024-03-08T08:17:44;16.03;;;8.87;;
4365;SDS011;2196;47.422;9.656;2024-03-08T08:20:12;14.77;;;9.77;;
4365;SDS011;2196;47.422;9.656;2024-03-08T08:22:41;18.57;;;10.37;;
4365;SDS011;2196;47.422;9.656;2024-03-08T08:25:09;12.80;;;9.00;;
4365;SDS011;2196;47.422;9.656;2024-03-08T08:27:39;16.63;;;11.40;;
4365;SDS011;2196;47.422;9.656;2024-03-08T08:30:07;22.00;;;14.03;;
4365;SDS011;2196;47.422;9.656;2024-03-08T08:32:38;21.83;;;12.33;;
4365;SDS011;2196;47.422;9.656;2024-03-08T08:35:08;20.47;;;11.33;;
4365;SDS011;2196;47.422;9.656;2024-03-08T08:37:38;20.73;;;12.47;;
4365;SDS011;2196;47.422;9.656;2024-03-08T08:40:05;22.30;;;13.03;;
4365;SDS011;2196;47.422;9.656;2024-03-08T08:42:35;22.13;;;12.33;;
4365;SDS011;2196;47.422;9.656;2024-03-08T08:45:06;22.53;;;13.90;;
4365;SDS011;2196;47.422;9.656;2024-03-08T08:47:34;24.47;;;15.27;;
4365;SDS011;2196;47.422;9.656;2024-03-08T08:50:02;24.90;;;13.23;;
4365;SDS011;2196;47.422;9.656;2024-03-08T08:52:31;24.70;;;13.97;;
4365;SDS011;2196;47.422;9.656;2024-03-08T08:54:59;24.10;;;14.73;;
4365;SDS011;2196;47.422;9.656;2024-03-08T08:57:28;21.73;;;13.80;;
4365;SDS011;2196;47.422;9.656;2024-03-08T08:59:58;20.17;;;12.93;;
4365;SDS011;2196;47.422;9.656;2024-03-08T09:02:25;20.43;;;12.97;;
4365;SDS011;2196;47.422;9.656;2024-03-08T09:04:52;22.57;;;13.80;;
4365;SDS011;2196;47.422;9.656;2024-03-08T09:07:19;20.57;;;13.17;;
4365;SDS011;2196;47.422;9.656;2024-03-08T09:09:48;23.80;;;13.67;;
4365;SDS011;2196;47.422;9.656;2024-03-08T09:12:15;24.57;;;13.50;;
4365;SDS011;2196;47.422;9.656;2024-03-08T09:14:42;24.03;;;13.27;;
4365;SDS011;2196;47.422;9.656;2024-03-08T09:17:09;22.43;;;14.40;;
4365;SDS011;2196;47.422;9.656;2024-03-08T09:19:36;20.33;;;12.73;;
4365;SDS011;2196;47.422;9.656;2024-03-08T09:22:04;21.03;;;12.33;;
4365;SDS011;2196;47.422;9.656;2024-03-08T09:24:31;17.70;;;11.70;;
4365;SDS011;2196;47.422;9.656;2024-03-08T09:27:00;20.47;;;12.67;;
4365;SDS011;2196;47.422;9.656;2024-03-08T09:29:27;21.33;;;12.23;;
4365;SDS011;2196;47.422;9.656;2024-03-08T09:31:54;20.23;;;12.77;;
4365;SDS011;2196;47.422;9.656;2024-03-08T09:34:21;20.00;;;13.20;;
4365;SDS011;2196;47.422;9.656;2024-03-08T09:36:48;19.23;;;12.03;;
4365;SDS011;2196;47.422;9.656;2024-03-08T09:39:15;20.43;;;12.83;;
4365;SDS011;2196;47.422;9.656;2024-03-08T09:41:44;20.27;;;13.97;;
4365;SDS011;2196;47.422;9.656;2024-03-08T09:44:14;20.47;;;12.33;;
4365;SDS011;2196;47.422;9.656;2024-03-08T09:46:41;19.53;;;11.70;;
4365;SDS011;2196;47.422;9.656;2024-03-08T09:49:08;15.50;;;10.17;;
4365;SDS011;2196;47.422;9.656;2024-03-08T09:51:36;19.67;;;11.07;;
4365;SDS011;2196;47.422;9.656;2024-03-08T09:54:05;20.90;;;11.83;;
4365;SDS011;2196;47.422;9.656;2024-03-08T09:56:33;16.57;;;10.07;;
4365;SDS011;2196;47.422;9.656;2024-03-08T09:59:01;15.27;;;10.80;;
4365;SDS011;2196;47.422;9.656;2024-03-08T10:02:07;16.03;;;10.53;;
4365;SDS011;2196;47.422;9.656;2024-03-08T10:04:39;16.13;;;10.83;;
4365;SDS011;2196;47.422;9.656;2024-03-08T10:07:07;17.47;;;11.27;;
4365;SDS011;2196;47.422;9.656;2024-03-08T10:09:34;13.83;;;10.17;;
4365;SDS011;2196;47.422;9.656;2024-03-08T10:12:01;13.63;;;9.70;;
4365;SDS011;2196;47.422;9.656;2024-03-08T10:14:28;16.03;;;10.93;;
4365;SDS011;2196;47.422;9.656;2024-03-08T10:16:56;13.20;;;9.60;;
4365;SDS011;2196;47.422;9.656;2024-03-08T10:19:26;11.93;;;8.70;;
4365;SDS011;2196;47.422;9.656;2024-03-08T10:21:55;15.73;;;9.43;;
4365;SDS011;2196;47.422;9.656;2024-03-08T10:24:23;13.47;;;9.07;;
4365;SDS011;2196;47.422;9.656;2024-03-08T10:26:51;14.53;;;9.60;;
4365;SDS011;2196;47.422;9.656;2024-03-08T10:29:19;14.27;;;9.40;;
4365;SDS011;2196;47.422;9.656;2024-03-08T10:31:46;13.23;;;10.20;;
4365;SDS011;2196;47.422;9.656;2024-03-08T10:34:15;15.50;;;10.13;;
4365;SDS011;2196;47.422;9.656;2024-03-08T10:36:44;14.73;;;9.73;;
4365;SDS011;2196;47.422;9.656;2024-03-08T10:39:14;13.43;;;8.77;;
4365;SDS011;2196;47.422;9.656;2024-03-08T10:41:49;15.97;;;9.67;;
4365;SDS011;2196;47.422;9.656;2024-03-08T10:44:22;11.43;;;8.50;;
4365;SDS011;2196;47.422;9.656;2024-03-08T10:47:08;12.13;;;9.20;;
4365;SDS011;2196;47.422;9.656;2024-03-08T10:49:48;14.63;;;10.40;;
4365;SDS011;2196;47.422;9.656;2024-03-08T10:52:21;16.10;;;9.67;;
4365;SDS011;2196;47.422;9.656;2024-03-08T10:54:49;15.20;;;11.27;;
4365;SDS011;2196;47.422;9.656;2024-03-08T10:57:20;14.33;;;10.93;;
4365;SDS011;2196;47.422;9.656;2024-03-08T10:59:50;14.43;;;9.53;;
4365;SDS011;2196;47.422;9.656;2024-03-08T11:02:17;14.80;;;10.17;;
4365;SDS011;2196;47.422;9.656;2024-03-08T11:04:46;16.30;;;11.53;;
4365;SDS011;2196;47.422;9.656;2024-03-08T11:07:14;15.80;;;11.10;;
4365;SDS011;2196;47.422;9.656;2024-03-08T11:09:46;18.73;;;11.37;;
4365;SDS011;2196;47.422;9.656;2024-03-08T11:12:21;13.43;;;10.33;;
4365;SDS011;2196;47.422;9.656;2024-03-08T11:14:51;14.97;;;11.37;;
4365;SDS011;2196;47.422;9.656;2024-03-08T11:17:22;15.33;;;10.27;;
4365;SDS011;2196;47.422;9.656;2024-03-08T11:20:09;14.47;;;10.33;;
4365;SDS011;2196;47.422;9.656;2024-03-08T11:22:47;16.20;;;11.67;;
4365;SDS011;2196;47.422;9.656;2024-03-08T11:28:14;15.27;;;10.83;;
4365;SDS011;2196;47.422;9.656;2024-03-08T11:30:43;17.23;;;11.70;;
4365;SDS011;2196;47.422;9.656;2024-03-08T11:33:12;20.47;;;11.30;;
4365;SDS011;2196;47.422;9.656;2024-03-08T11:35:39;14.37;;;10.90;;
4365;SDS011;2196;47.422;9.656;2024-03-08T11:38:07;16.50;;;11.20;;
4365;SDS011;2196;47.422;9.656;2024-03-08T11:40:36;17.27;;;11.20;;
4365;SDS011;2196;47.422;9.656;2024-03-08T11:43:05;16.90;;;11.23;;
4365;SDS011;2196;47.422;9.656;2024-03-08T11:45:33;16.93;;;11.83;;
4365;SDS011;2196;47.422;9.656;2024-03-08T11:48:01;15.00;;;10.93;;
4365;SDS011;2196;47.422;9.656;2024-03-08T11:50:30;19.63;;;11.43;;
4365;SDS011;2196;47.422;9.656;2024-03-08T11:53:01;14.40;;;11.75;;
4365;SDS011;2196;47.422;9.656;2024-03-08T11:55:29;18.07;;;11.40;;
4365;SDS011;2196;47.422;9.656;2024-03-08T11:58:01;19.07;;;11.83;;
4365;SDS011;2196;47.422;9.656;2024-03-08T12:00:29;16.43;;;12.10;;
4365;SDS011;2196;47.422;9.656;2024-03-08T12:03:03;17.23;;;11.77;;
4365;SDS011;2196;47.422;9.656;2024-03-08T12:05:31;17.23;;;12.63;;
4365;SDS011;2196;47.422;9.656;2024-03-08T12:07:59;15.33;;;11.27;;
4365;SDS011;2196;47.422;9.656;2024-03-08T12:10:27;19.67;;;12.57;;
4365;SDS011;2196;47.422;9.656;2024-03-08T12:12:54;14.97;;;11.50;;
4365;SDS011;2196;47.422;9.656;2024-03-08T12:15:26;15.67;;;11.13;;
4365;SDS011;2196;47.422;9.656;2024-03-08T12:17:54;18.57;;;12.70;;
4365;SDS011;2196;47.422;9.656;2024-03-08T12:20:24;14.00;;;11.07;;
4365;SDS011;2196;47.422;9.656;2024-03-08T12:22:52;18.00;;;12.80;;
4365;SDS011;2196;47.422;9.656;2024-03-08T12:25:22;21.50;;;13.27;;
4365;SDS011;2196;47.422;9.656;2024-03-08T12:27:52;17.40;;;12.87;;
4365;SDS011;2196;47.422;9.656;2024-03-08T12:30:21;17.63;;;12.30;;
4365;SDS011;2196;47.422;9.656;2024-03-08T12:32:54;16.43;;;12.37;;
4365;SDS011;2196;47.422;9.656;2024-03-08T12:35:23;16.90;;;12.17;;
4365;SDS011;2196;47.422;9.656;2024-03-08T12:37:51;19.87;;;13.70;;
4365;SDS011;2196;47.422;9.656;2024-03-08T12:40:19;18.03;;;14.03;;
4365;SDS011;2196;47.422;9.656;2024-03-08T12:42:53;16.70;;;11.77;;
4365;SDS011;2196;47.422;9.656;2024-03-08T12:45:22;15.93;;;11.70;;
4365;SDS011;2196;47.422;9.656;2024-03-08T12:47:49;20.07;;;13.50;;
4365;SDS011;2196;47.422;9.656;2024-03-08T12:50:21;18.07;;;12.10;;
4365;SDS011;2196;47.422;9.656;2024-03-08T12:52:50;17.07;;;12.23;;
4365;SDS011;2196;47.422;9.656;2024-03-08T12:55:17;13.93;;;10.67;;
4365;SDS011;2196;47.422;9.656;2024-03-08T12:57:45;17.67;;;11.80;;
4365;SDS011;2196;47.422;9.656;2024-03-08T13:00:14;18.03;;;11.40;;
4365;SDS011;2196;47.422;9.656;2024-03-08T13:02:45;15.10;;;11.23;;
4365;SDS011;2196;47.422;9.656;2024-03-08T13:05:12;18.03;;;12.67;;
4365;SDS011;2196;47.422;9.656;2024-03-08T13:07:44;14.13;;;10.93;;
4365;SDS011;2196;47.422;9.656;2024-03-08T13:10:12;17.03;;;12.17;;
4365;SDS011;2196;47.422;9.656;2024-03-08T13:12:40;16.03;;;11.60;;
4365;SDS011;2196;47.422;9.656;2024-03-08T13:15:12;15.33;;;10.60;;
4365;SDS011;2196;47.422;9.656;2024-03-08T13:17:42;14.87;;;12.13;;
4365;SDS011;2196;47.422;9.656;2024-03-08T13:20:10;17.23;;;12.53;;
4365;SDS011;2196;47.422;9.656;2024-03-08T13:22:46;19.33;;;12.80;;
4365;SDS011;2196;47.422;9.656;2024-03-08T13:25:13;19.10;;;12.60;;
4365;SDS011;2196;47.422;9.656;2024-03-08T13:27:40;17.93;;;12.83;;
4365;SDS011;2196;47.422;9.656;2024-03-08T13:30:08;17.17;;;12.27;;
4365;SDS011;2196;47.422;9.656;2024-03-08T13:32:39;16.63;;;12.03;;
4365;SDS011;2196;47.422;9.656;2024-03-08T13:35:09;19.23;;;12.90;;
4365;SDS011;2196;47.422;9.656;2024-03-08T13:37:38;15.97;;;12.27;;
4365;SDS011;2196;47.422;9.656;2024-03-08T13:40:10;18.27;;;12.87;;
4365;SDS011;2196;47.422;9.656;2024-03-08T13:42:39;16.10;;;12.93;;
4365;SDS011;2196;47.422;9.656;2024-03-08T13:45:06;17.97;;;12.53;;
4365;SDS011;2196;47.422;9.656;2024-03-08T13:47:36;14.70;;;11.77;;
4365;SDS011;2196;47.422;9.656;2024-03-08T13:50:04;15.23;;;12.50;;
4365;SDS011;2196;47.422;9.656;2024-03-08T13:52:32;16.83;;;12.10;;
4365;SDS011;2196;47.422;9.656;2024-03-08T13:54:59;13.67;;;11.57;;
4365;SDS011;2196;47.422;9.656;2024-03-08T13:57:28;18.57;;;12.70;;
4365;SDS011;2196;47.422;9.656;2024-03-08T13:59:55;20.50;;;13.27;;
4365;SDS011;2196;47.422;9.656;2024-03-08T14:02:21;13.93;;;11.30;;
4365;SDS011;2196;47.422;9.656;2024-03-08T14:04:53;16.07;;;12.37;;
4365;SDS011;2196;47.422;9.656;2024-03-08T14:07:20;17.77;;;12.80;;
4365;SDS011;2196;47.422;9.656;2024-03-08T14:09:48;16.57;;;11.77;;
4365;SDS011;2196;47.422;9.656;2024-03-08T14:12:17;19.47;;;13.70;;
4365;SDS011;2196;47.422;9.656;2024-03-08T14:14:46;17.37;;;13.20;;
4365;SDS011;2196;47.422;9.656;2024-03-08T14:17:13;16.53;;;12.60;;
4365;SDS011;2196;47.422;9.656;2024-03-08T14:19:42;18.67;;;14.07;;
4365;SDS011;2196;47.422;9.656;2024-03-08T14:22:09;19.20;;;13.67;;
4365;SDS011;2196;47.422;9.656;2024-03-08T14:24:39;16.67;;;12.73;;
4365;SDS011;2196;47.422;9.656;2024-03-08T14:27:07;16.47;;;11.90;;
4365;SDS011;2196;47.422;9.656;2024-03-08T14:29:35;19.43;;;13.43;;
4365;SDS011;2196;47.422;9.656;2024-03-08T14:32:03;20.17;;;13.82;;
4365;SDS011;2196;47.422;9.656;2024-03-08T14:34:31;17.00;;;12.17;;
4365;SDS011;2196;47.422;9.656;2024-03-08T14:36:59;17.40;;;12.97;;
4365;SDS011;2196;47.422;9.656;2024-03-08T14:39:30;19.40;;;14.00;;
4365;SDS011;2196;47.422;9.656;2024-03-08T14:41:58;17.70;;;13.50;;
4365;SDS011;2196;47.422;9.656;2024-03-08T14:44:27;16.13;;;13.10;;
4365;SDS011;2196;47.422;9.656;2024-03-08T14:46:55;19.13;;;14.33;;
4365;SDS011;2196;47.422;9.656;2024-03-08T14:49:24;17.83;;;12.33;;
4365;SDS011;2196;47.422;9.656;2024-03-08T14:51:54;20.00;;;13.37;;
4365;SDS011;2196;47.422;9.656;2024-03-08T14:54:23;20.10;;;14.17;;
4365;SDS011;2196;47.422;9.656;2024-03-08T14:56:51;25.97;;;14.10;;
4365;SDS011;2196;47.422;9.656;2024-03-08T14:59:20;19.73;;;14.53;;
4365;SDS011;2196;47.422;9.656;2024-03-08T15:01:48;18.67;;;13.50;;
4365;SDS011;2196;47.422;9.656;2024-03-08T15:04:15;23.40;;;14.67;;
4365;SDS011;2196;47.422;9.656;2024-03-08T15:06:44;17.03;;;13.00;;